To NAV CANADA Home Page Login to a new session Search on AWWS site Feedback and Comments Disclaimer Vers la page française équivalente Tips FAQ What's new on the site To the Forecasts and Observations / NOTAM section To "File a Flight Plan" website Publications and other links Update of the User's profile FIC Telephone Numbers My Weather Data Folder Route Weather Data Regional Weather Data Local Weather Data To the Forecasts and Observations / NOTAM section
Request Generated 05/05/2016 at 16:10:42 UTC . Weather information available at that time is displayed.

METAR/TAF

MONTREAL/ST-HUBERT/QC    (show WxCam)

METAR CYHU 051600Z AUTO 04014G23KT 9SM SCT036 OVC060 14/05 A2986 RMK
SLP114=
METAR CYHU 051500Z AUTO 05013G18KT 9SM BKN034 OVC070 13/05 A2987 RMK
SLP118=
METAR CYHU 051400Z AUTO 04011G19KT 9SM BKN030 BKN085 12/05 A2987 RMK
SLP118=

TAF CYHU 051138Z 0512/0612 04010KT P6SM FEW120
FM051500 04015KT P6SM BKN040
FM060400 02010KT P6SM SCT030
RMK FCST BASED ON AUTO OBS. NXT FCST BY 051800Z=
Your time UTC time
Weather data provided by Environment Canada and NAV CANADA